Time;durP1;ratioP1;P1;durP2;ratioP2;P2;SDS_P1;SDS_P2;PMS_P1;PMS_P2;Temp;Humidity;BMP_temperature;BMP_pressure;BME280_temperature;BME280_humidity;BME280_pressure;Samples;Min_cycle;Max_cycle;Signal;HPM_P1;HPM_P2
2023/10/20 00:00:37;;;;;;;13.45;9.27;;;;;;;16.56;48.58;98425.72;5132748;27;20046;-64
2023/10/20 00:03:06;;;;;;;13.02;8.98;;;;;;;16.55;48.55;98426.72;5132594;27;20047;-65
2023/10/20 00:05:37;;;;;;;11.35;8.07;;;;;;;16.55;48.40;98424.88;5132829;27;20051;-64
2023/10/20 00:08:06;;;;;;;12.13;9.10;;;;;;;16.54;48.70;98431.28;5132801;27;20044;-65
2023/10/20 00:10:35;;;;;;;11.70;8.57;;;;;;;16.54;48.59;98433.97;5132523;27;20620;-65
2023/10/20 00:13:05;;;;;;;13.00;9.40;;;;;;;16.55;48.57;98443.72;5132459;27;20442;-64
2023/10/20 00:15:34;;;;;;;12.15;9.45;;;;;;;16.54;48.75;98449.28;5132690;27;20047;-65
2023/10/20 00:18:02;;;;;;;12.07;8.68;;;;;;;16.53;48.74;98445.75;5132494;27;20046;-64
2023/10/20 00:20:31;;;;;;;11.90;8.70;;;;;;;16.53;48.91;98434.16;5132424;27;20043;-64
2023/10/20 00:23:01;;;;;;;12.80;9.07;;;;;;;16.54;48.73;98433.13;5132498;27;20051;-64
2023/10/20 00:25:29;;;;;;;11.65;8.63;;;;;;;16.52;48.57;98421.72;5132717;27;20514;-65
2023/10/20 00:27:57;;;;;;;12.65;9.13;;;;;;;16.51;48.89;98423.56;5136758;27;20329;-64
2023/10/20 00:30:26;;;;;;;11.95;8.55;;;;;;;16.51;48.72;98420.88;5136524;27;20463;-64
2023/10/20 00:32:54;;;;;;;12.30;8.60;;;;;;;16.52;48.94;98429.78;5136661;27;20048;-64
2023/10/20 00:35:23;;;;;;;10.95;8.00;;;;;;;16.52;48.91;98429.78;5136550;27;20047;-64
2023/10/20 00:37:51;;;;;;;12.10;8.57;;;;;;;16.52;48.82;98424.41;5136448;27;20058;-64
2023/10/20 00:40:21;;;;;;;11.23;8.45;;;;;;;16.50;48.93;98419.19;5136442;27;20150;-65
2023/10/20 00:42:50;;;;;;;12.60;8.90;;;;;;;16.50;48.80;98416.50;5136161;27;20051;-64
2023/10/20 00:45:19;;;;;;;11.93;8.93;;;;;;;16.50;48.67;98411.13;5136271;27;20505;-64
2023/10/20 00:47:48;;;;;;;12.07;8.73;;;;;;;16.50;48.93;98400.34;5136469;27;20088;-64
2023/10/20 00:50:17;;;;;;;11.68;8.50;;;;;;;16.49;48.70;98398.66;5136569;27;20069;-64
2023/10/20 00:52:49;;;;;;;11.90;8.80;;;;;;;16.50;48.89;98380.66;5136198;27;20403;-65
2023/10/20 00:55:21;;;;;;;12.77;9.00;;;;;;;16.47;48.79;98379.16;5136116;27;20055;-64
2023/10/20 00:57:55;;;;;;;11.73;8.82;;;;;;;16.49;48.90;98373.59;5135971;27;20055;-65
2023/10/20 01:00:23;;;;;;;13.10;8.90;;;;;;;16.49;48.85;98376.28;5136177;27;20046;-65
2023/10/20 01:02:53;;;;;;;12.68;9.05;;;;;;;16.48;48.90;98374.59;5135861;27;20503;-65
2023/10/20 01:05:23;;;;;;;11.85;8.18;;;;;;;16.48;48.86;98363.84;5136033;27;20051;-64
2023/10/20 01:07:52;;;;;;;11.48;8.65;;;;;;;16.47;48.85;98363.00;5135794;27;20047;-65
2023/10/20 01:10:20;;;;;;;12.50;9.18;;;;;;;16.49;48.91;98360.13;5135828;27;20051;-64
2023/10/20 01:12:50;;;;;;;11.48;8.20;;;;;;;16.48;49.03;98361.16;5135584;27;20479;-65
2023/10/20 01:15:18;;;;;;;11.35;8.70;;;;;;;16.44;48.93;98352.59;5135866;27;20118;-65
2023/10/20 01:17:46;;;;;;;13.13;9.23;;;;;;;16.47;48.94;98357.63;5135745;27;20053;-65
2023/10/20 01:20:15;;;;;;;12.55;8.70;;;;;;;16.47;48.96;98357.63;5135727;27;20054;-65
2023/10/20 01:22:44;;;;;;;11.75;8.63;;;;;;;16.46;48.98;98355.94;5134211;27;20138;-65
2023/10/20 01:25:17;;;;;;;12.85;9.00;;;;;;;16.47;48.93;98357.63;5135494;27;20043;-66
2023/10/20 01:27:45;;;;;;;11.73;8.10;;;;;;;16.46;49.01;98350.56;5135780;27;20066;-64
2023/10/20 01:30:14;;;;;;;11.85;7.88;;;;;;;16.46;49.06;98344.34;5135592;27;20402;-65
2023/10/20 01:32:43;;;;;;;11.15;8.43;;;;;;;16.45;48.77;98335.44;5135667;27;20039;-64
2023/10/20 01:35:13;;;;;;;10.65;8.07;;;;;;;16.45;49.01;98323.84;5135212;27;20537;-64
2023/10/20 01:37:42;;;;;;;12.30;8.25;;;;;;;16.45;48.92;98322.00;5134084;27;20126;-65
2023/10/20 01:40:12;;;;;;;12.02;8.82;;;;;;;16.45;49.19;98322.00;5135367;27;20084;-64
2023/10/20 01:42:42;;;;;;;11.43;8.40;;;;;;;16.44;49.03;98304.16;5135614;27;20403;-64
2023/10/20 01:45:11;;;;;;;11.32;8.60;;;;;;;16.45;48.94;98297.78;5135246;27;20171;-64
2023/10/20 01:47:40;;;;;;;11.50;9.10;;;;;;;16.43;49.02;98307.88;5135209;27;20047;-64
2023/10/20 01:50:10;;;;;;;11.20;8.10;;;;;;;16.43;49.03;98299.81;5135406;27;20568;-66
2023/10/20 01:52:39;;;;;;;10.95;8.27;;;;;;;16.43;49.14;98297.13;5134925;27;20562;-64
2023/10/20 01:55:09;;;;;;;11.35;8.27;;;;;;;16.43;49.05;98297.13;5134994;27;20043;-64
2023/10/20 01:57:37;;;;;;;10.38;8.38;;;;;;;16.43;49.13;98294.41;5134998;27;20100;-64
2023/10/20 02:00:13;;;;;;;11.65;8.57;;;;;;;16.44;49.07;98304.16;5134915;27;20054;-64
2023/10/20 02:02:42;;;;;;;12.18;8.43;;;;;;;16.41;48.92;98291.06;5134974;27;20047;-64
2023/10/20 02:05:10;;;;;;;12.40;8.55;;;;;;;16.41;49.11;98291.06;5134944;27;20047;-64
2023/10/20 02:07:39;;;;;;;10.98;8.60;;;;;;;16.43;48.86;98272.91;5134665;27;20497;-64
2023/10/20 02:10:08;;;;;;;11.20;8.30;;;;;;;16.43;49.09;98270.22;5134736;27;20039;-65
2023/10/20 02:12:36;;;;;;;11.95;8.80;;;;;;;16.42;49.11;98276.59;5134595;27;20100;-64
2023/10/20 02:15:08;;;;;;;11.18;7.75;;;;;;;16.41;49.13;98277.63;5134423;27;20126;-65
2023/10/20 02:17:36;;;;;;;10.60;8.05;;;;;;;16.42;49.13;98283.84;5134841;27;20666;-64
2023/10/20 02:20:06;;;;;;;11.85;8.43;;;;;;;16.42;49.14;98273.06;5134725;27;20065;-64
2023/10/20 02:22:34;;;;;;;11.23;7.88;;;;;;;16.41;49.05;98276.78;5134221;27;20135;-64
2023/10/20 02:25:04;;;;;;;10.98;8.48;;;;;;;16.41;49.21;98266.88;5134454;27;20122;-64
2023/10/20 02:27:32;;;;;;;10.65;7.57;;;;;;;16.41;49.10;98272.25;5134374;27;20046;-64
2023/10/20 02:30:00;;;;;;;11.95;8.70;;;;;;;16.41;49.22;98274.94;5134501;27;20079;-64
2023/10/20 02:32:30;;;;;;;11.52;8.23;;;;;;;16.41;49.13;98266.88;5134543;27;20467;-63
2023/10/20 02:34:59;;;;;;;11.25;8.20;;;;;;;16.41;49.23;98266.03;5134281;27;20043;-64
2023/10/20 02:37:28;;;;;;;11.65;8.45;;;;;;;16.40;49.05;98273.22;5134163;27;20050;-64
2023/10/20 02:39:56;;;;;;;11.65;8.07;;;;;;;16.39;49.02;98270.72;5134062;27;20039;-65
2023/10/20 02:42:25;;;;;;;11.93;8.07;;;;;;;16.40;49.14;98275.91;5134094;27;20078;-65
2023/10/20 02:44:53;;;;;;;11.00;8.07;;;;;;;16.39;49.29;98274.25;5134224;27;20047;-64
2023/10/20 02:47:25;;;;;;;10.75;7.88;;;;;;;16.39;49.31;98268.88;5134135;27;20068;-64
2023/10/20 02:49:56;;;;;;;10.75;7.95;;;;;;;16.39;49.24;98276.94;5133596;27;20047;-64
2023/10/20 02:52:25;;;;;;;11.35;8.25;;;;;;;16.40;49.29;98270.53;5133802;27;20077;-64
2023/10/20 02:54:54;;;;;;;10.88;8.15;;;;;;;16.38;49.32;98266.34;5133695;27;20047;-64
2023/10/20 02:57:23;;;;;;;11.35;7.53;;;;;;;16.40;49.29;98258.94;5133943;27;20051;-63
2023/10/20 02:59:51;;;;;;;11.50;8.27;;;;;;;16.38;49.25;98251.06;5133919;27;20081;-64
2023/10/20 03:02:21;;;;;;;10.65;8.13;;;;;;;16.38;49.31;98261.81;5133720;27;20487;-64
2023/10/20 03:04:52;;;;;;;9.80;7.50;;;;;;;16.38;49.33;98250.22;5133546;27;20616;-64
2023/10/20 03:07:27;;;;;;;10.68;8.30;;;;;;;16.37;49.23;98241.31;5133435;27;20047;-64
2023/10/20 03:09:56;;;;;;;11.23;7.60;;;;;;;16.38;49.44;98239.44;5133736;27;20058;-64
2023/10/20 03:12:25;;;;;;;10.18;7.75;;;;;;;16.36;49.47;98245.00;5133625;27;20058;-64
2023/10/20 03:14:53;;;;;;;11.85;8.35;;;;;;;16.38;49.35;98248.38;5133188;27;20476;-64
2023/10/20 03:17:21;;;;;;;11.90;8.07;;;;;;;16.38;49.21;98259.13;5133473;27;20043;-64
2023/10/20 03:19:51;;;;;;;9.68;7.68;;;;;;;16.38;49.30;98258.28;5133221;27;20510;-64
2023/10/20 03:22:19;;;;;;;10.80;7.97;;;;;;;16.37;49.38;98260.13;5133395;27;20070;-64
2023/10/20 03:24:52;;;;;;;10.10;7.50;;;;;;;16.37;49.23;98260.13;5133138;27;20399;-64
2023/10/20 03:27:22;;;;;;;11.32;7.95;;;;;;;16.37;49.33;98264.69;5133452;27;20439;-64
2023/10/20 03:29:51;;;;;;;10.70;7.88;;;;;;;16.37;49.31;98260.13;5133176;27;20499;-64
2023/10/20 03:32:20;;;;;;;10.75;7.63;;;;;;;16.37;49.29;98265.53;5132637;27;20039;-64
2023/10/20 03:34:48;;;;;;;10.77;7.80;;;;;;;16.36;49.45;98263.84;5133177;27;20062;-64
2023/10/20 03:37:17;;;;;;;11.07;7.97;;;;;;;16.37;49.31;98256.63;5133196;27;20134;-64
2023/10/20 03:39:45;;;;;;;11.20;8.15;;;;;;;16.37;49.38;98256.63;5133167;27;20079;-63
2023/10/20 03:42:17;;;;;;;10.63;8.18;;;;;;;16.36;49.32;98245.00;5133035;27;20461;-63
2023/10/20 03:44:47;;;;;;;11.55;7.78;;;;;;;16.36;49.39;98253.09;5132786;27;20078;-64
2023/10/20 03:47:17;;;;;;;10.38;7.90;;;;;;;16.34;49.56;98252.44;5133100;27;20054;-64
2023/10/20 03:49:46;;;;;;;10.38;7.78;;;;;;;16.35;49.38;98259.50;5133095;27;20134;-64
2023/10/20 03:52:15;;;;;;;11.32;7.75;;;;;;;16.35;49.11;98245.19;5132820;27;20043;-65
2023/10/20 03:54:44;;;;;;;10.43;7.85;;;;;;;16.35;49.55;98248.72;5132884;27;20043;-64
2023/10/20 03:57:15;;;;;;;11.52;8.15;;;;;;;16.35;49.34;98256.78;5132702;27;20043;-64
2023/10/20 03:59:48;;;;;;;11.07;7.90;;;;;;;16.33;49.46;98250.75;5132923;27;20476;-64
2023/10/20 04:02:16;;;;;;;10.52;7.90;;;;;;;16.34;49.33;98255.13;5132436;27;20104;-64
2023/10/20 04:04:45;;;;;;;11.70;7.78;;;;;;;16.34;49.39;98248.91;5132908;27;20043;-64
2023/10/20 04:07:13;;;;;;;10.68;8.00;;;;;;;16.33;49.57;98245.38;5132781;27;20151;-64
2023/10/20 04:09:46;;;;;;;10.75;8.07;;;;;;;16.32;49.44;98235.63;5132682;27;20066;-64
2023/10/20 04:12:16;;;;;;;10.23;7.32;;;;;;;16.32;49.40;98216.81;5132595;27;20071;-64
2023/10/20 04:14:45;;;;;;;10.77;7.63;;;;;;;16.33;49.51;98213.09;5132674;27;20069;-64
2023/10/20 04:17:15;;;;;;;9.75;7.03;;;;;;;16.33;49.47;98226.56;5132540;27;20536;-64
2023/10/20 04:19:45;;;;;;;11.05;7.78;;;;;;;16.33;49.55;98231.94;5132648;27;20051;-62
2023/10/20 04:22:13;;;;;;;10.30;7.32;;;;;;;16.32;49.43;98227.56;5132102;27;20074;-64
2023/10/20 04:24:44;;;;;;;11.23;7.97;;;;;;;16.33;49.54;98240.00;5132334;27;20070;-66
2023/10/20 04:27:21;;;;;;;10.15;7.55;;;;;;;16.34;49.51;98235.47;5132448;27;20492;-63
2023/10/20 04:43:41;;;;;;;10.30;7.05;;;;;;;16.32;49.59;98214.13;5132325;27;20214;-65
2023/10/20 04:49:16;;;;;;;8.85;7.07;;;;;;;16.31;49.36;98217.81;5132059;28;20047;-64
2023/10/20 04:52:05;;;;;;;9.30;6.75;;;;;;;16.32;49.27;98214.13;5132193;27;20126;-64
2023/10/20 04:54:50;;;;;;;9.45;7.00;;;;;;;16.31;49.18;98224.03;5132336;27;20415;-64
2023/10/20 04:57:35;;;;;;;8.98;6.68;;;;;;;16.31;49.18;98229.41;5132275;27;20047;-64
2023/10/20 05:03:29;;;;;;;9.90;7.00;;;;;;;16.30;49.27;98233.09;5095260;27;20107;-65
2023/10/20 05:06:19;;;;;;;8.77;6.40;;;;;;;16.32;49.18;98227.56;5132280;27;20246;-64
2023/10/20 05:08:48;;;;;;;9.38;6.68;;;;;;;16.31;49.26;98218.66;5132293;27;20403;-63
2023/10/20 05:11:17;;;;;;;9.40;6.88;;;;;;;16.32;49.37;98227.56;5132200;27;20643;-64
2023/10/20 05:13:46;;;;;;;9.23;6.63;;;;;;;16.31;49.42;98226.72;5135586;27;20043;-64
2023/10/20 05:16:14;;;;;;;9.13;6.55;;;;;;;16.31;49.33;98223.22;5135677;27;20138;-65
2023/10/20 05:18:46;;;;;;;8.35;6.30;;;;;;;16.33;49.36;98233.78;5135622;27;20055;-63
2023/10/20 05:21:15;;;;;;;9.20;6.80;;;;;;;16.31;49.22;98229.41;5135291;27;20471;-64
2023/10/20 05:23:46;;;;;;;8.82;6.43;;;;;;;16.31;49.22;98229.41;5135278;27;20070;-64
2023/10/20 05:26:14;;;;;;;9.38;6.88;;;;;;;16.30;49.34;98216.97;5135544;27;20039;-64
2023/10/20 05:28:43;;;;;;;8.60;6.28;;;;;;;16.31;49.41;98217.81;5135532;27;20047;-65
2023/10/20 05:31:11;;;;;;;8.23;6.38;;;;;;;16.31;49.30;98215.97;5135312;27;20074;-64
2023/10/20 05:33:39;;;;;;;9.23;6.70;;;;;;;16.30;49.34;98211.56;5133471;27;20467;-64
2023/10/20 05:36:10;;;;;;;8.93;6.95;;;;;;;16.31;49.35;98217.81;5135312;27;20078;-64
2023/10/20 05:38:40;;;;;;;8.30;6.50;;;;;;;16.31;49.29;98223.22;5135198;27;20043;-64
2023/10/20 05:41:09;;;;;;;9.75;6.55;;;;;;;16.31;49.60;98228.59;5134921;27;20050;-64
2023/10/20 05:43:38;;;;;;;9.00;6.82;;;;;;;16.31;49.61;98223.22;5134989;27;20047;-64
2023/10/20 05:46:07;;;;;;;8.23;6.13;;;;;;;16.29;49.61;98219.84;5134569;27;20043;-65
2023/10/20 05:48:36;;;;;;;8.45;6.47;;;;;;;16.31;49.64;98225.91;5134624;27;20043;-64
2023/10/20 05:51:05;;;;;;;9.32;6.38;;;;;;;16.32;49.51;98246.41;5134679;27;20691;-64
2023/10/20 05:53:35;;;;;;;9.45;6.38;;;;;;;16.31;49.56;98240.19;5134490;27;20047;-65
2023/10/20 05:56:05;;;;;;;9.82;6.47;;;;;;;16.33;49.52;98241.84;5134868;27;20054;-65
2023/10/20 05:58:37;;;;;;;9.10;6.63;;;;;;;16.33;49.49;98240.00;5134949;27;20054;-65
2023/10/20 06:01:09;;;;;;;8.27;6.47;;;;;;;16.33;49.41;98236.47;5134910;27;20039;-64
2023/10/20 06:03:38;;;;;;;9.57;6.50;;;;;;;16.34;49.48;98238.16;5134763;27;20078;-64
2023/10/20 06:06:07;;;;;;;9.35;6.43;;;;;;;16.33;49.29;98236.47;5134699;27;20452;-65
2023/10/20 06:08:35;;;;;;;7.25;5.28;;;;;;;16.34;49.35;98243.53;5134624;27;20126;-64
2023/10/20 06:11:06;;;;;;;8.60;6.30;;;;;;;16.33;49.63;98242.69;5134567;27;20204;-64
2023/10/20 06:13:37;;;;;;;9.05;6.60;;;;;;;16.34;49.58;98238.97;5134731;27;20452;-64
2023/10/20 06:16:09;;;;;;;8.63;6.07;;;;;;;16.35;49.63;98240.66;5134397;27;20133;-64
2023/10/20 06:18:40;;;;;;;8.57;6.45;;;;;;;16.33;49.59;98242.69;5134450;27;20153;-64
2023/10/20 06:21:15;;;;;;;8.90;6.25;;;;;;;16.35;49.68;98242.50;5134268;27;20047;-64
2023/10/20 06:23:44;;;;;;;9.80;6.60;;;;;;;16.35;49.68;98231.75;5133006;27;20145;-63
2023/10/20 06:26:14;;;;;;;9.05;6.32;;;;;;;16.35;49.57;98235.28;5135258;27;20057;-62
2023/10/20 06:28:43;;;;;;;9.40;6.72;;;;;;;16.36;49.96;98242.31;5135245;27;20163;-61
2023/10/20 06:31:27;;;;;;;9.18;6.60;;;;;;;16.36;49.62;98231.56;5134089;27;20077;-63
2023/10/20 06:34:01;;;;;;;9.52;6.40;;;;;;;16.36;49.64;98231.56;5134029;27;20043;-63
2023/10/20 06:36:30;;;;;;;;;;;;;;;16.36;49.79;98230.72;5134400;27;20415;-64
2023/10/20 06:38:58;;;;;;;9.43;6.20;;;;;;;16.36;49.61;98234.25;5133949;27;20419;-64
2023/10/20 06:41:28;;;;;;;9.23;6.70;;;;;;;16.37;49.71;98238.63;5133985;27;20043;-64
2023/10/20 06:43:57;;;;;;;8.80;6.63;;;;;;;16.38;49.65;98237.59;5133743;27;20134;-64
2023/10/20 06:46:27;;;;;;;8.77;6.57;;;;;;;16.38;49.70;98232.22;5133796;27;20074;-64
2023/10/20 06:48:56;;;;;;;8.95;6.40;;;;;;;16.38;49.75;98226.84;5133751;27;20129;-64
2023/10/20 06:51:25;;;;;;;9.55;6.20;;;;;;;16.40;49.79;98222.09;5133807;27;20047;-64
2023/10/20 06:53:53;;;;;;;8.82;6.45;;;;;;;16.39;49.67;98233.88;5133508;27;20051;-64
2023/10/20 06:56:22;;;;;;;8.35;6.20;;;;;;;16.39;49.67;98230.38;5133897;27;20051;-64
2023/10/20 06:58:52;;;;;;;9.38;6.97;;;;;;;16.41;49.91;98244.50;5133648;27;20092;-65
2023/10/20 07:01:20;;;;;;;9.18;6.55;;;;;;;16.40;50.04;98242.78;5133331;27;20100;-65
2023/10/20 07:03:48;;;;;;;9.00;6.47;;;;;;;16.41;49.82;98234.56;5132784;27;20043;-64
2023/10/20 07:06:17;;;;;;;7.95;5.78;;;;;;;16.42;49.75;98230.03;5132398;27;20423;-65
2023/10/20 07:08:45;;;;;;;8.13;5.85;;;;;;;16.42;49.79;98225.47;5132786;27;20043;-64
2023/10/20 07:11:15;;;;;;;8.20;6.32;;;;;;;16.41;49.95;98221.13;5133493;27;20086;-64
2023/10/20 07:13:44;;;;;;;9.10;6.72;;;;;;;16.41;49.73;98218.44;5131807;27;20049;-64
2023/10/20 07:16:14;;;;;;;8.13;5.50;;;;;;;16.42;49.83;98219.25;5131896;27;20137;-64
2023/10/20 07:18:42;;;;;;;8.27;6.05;;;;;;;16.44;49.94;98228.00;5132048;27;20088;-66
2023/10/20 07:21:11;;;;;;;9.20;6.22;;;;;;;16.44;50.07;98228.81;5133312;27;20047;-64
2023/10/20 07:23:39;;;;;;;8.23;6.10;;;;;;;16.44;49.96;98223.44;5132816;27;20047;-65
2023/10/20 07:26:07;;;;;;;8.70;5.95;;;;;;;16.44;50.12;98220.75;5133102;27;20039;-65
2023/10/20 07:28:36;;;;;;;8.48;6.20;;;;;;;16.45;50.11;98230.50;5133027;27;20075;-65
2023/10/20 07:31:11;;;;;;;8.68;5.82;;;;;;;16.45;50.24;98232.34;5133141;27;20050;-65
2023/10/20 07:33:41;;;;;;;7.75;5.88;;;;;;;16.46;50.18;98242.94;5132868;27;20043;-65
2023/10/20 07:36:10;;;;;;;9.30;5.63;;;;;;;16.47;50.29;98235.69;5132847;27;20047;-65
2023/10/20 07:38:39;;;;;;;7.45;5.50;;;;;;;16.48;50.13;98238.19;5133333;27;20048;-65
2023/10/20 07:41:09;;;;;;;8.65;5.65;;;;;;;16.49;50.16;98242.56;5132816;27;20047;-65
2023/10/20 07:43:38;;;;;;;9.27;6.18;;;;;;;16.51;50.36;98228.97;5132846;27;20514;-65
2023/10/20 07:46:06;;;;;;;8.85;5.70;;;;;;;16.51;50.34;98229.78;5133073;27;20379;-65
2023/10/20 07:48:35;;;;;;;9.13;5.75;;;;;;;16.51;50.38;98219.03;5132992;27;20051;-65
2023/10/20 07:51:05;;;;;;;8.13;5.72;;;;;;;16.54;50.43;98225.91;5132860;27;20039;-65
2023/10/20 07:53:34;;;;;;;7.47;5.55;;;;;;;16.54;50.35;98234.81;5132630;27;20087;-65
2023/10/20 07:56:03;;;;;;;7.32;5.35;;;;;;;16.55;50.34;98225.72;5132661;27;20126;-65
2023/10/20 07:58:32;;;;;;;8.85;5.95;;;;;;;16.57;50.28;98223.69;5132849;27;20039;-65
2023/10/20 08:01:01;;;;;;;7.32;5.22;;;;;;;16.56;50.22;98222.00;5132722;27;20051;-65
2023/10/20 08:03:29;;;;;;;8.75;5.70;;;;;;;16.59;50.17;98226.19;5132564;27;20058;-65
2023/10/20 08:06:02;;;;;;;7.43;5.38;;;;;;;16.59;49.98;98216.25;5132474;27;20043;-65
2023/10/20 08:08:33;;;;;;;6.85;5.32;;;;;;;16.60;49.95;98212.56;5132393;27;20480;-65
2023/10/20 08:11:05;;;;;;;8.38;5.75;;;;;;;16.62;49.91;98215.09;5132635;27;20372;-65
2023/10/20 08:13:34;;;;;;;6.80;5.32;;;;;;;16.64;49.86;98218.41;5132734;27;20047;-65
2023/10/20 08:16:03;;;;;;;7.28;5.03;;;;;;;16.64;49.72;98210.34;5132505;27;20087;-65
2023/10/20 08:18:34;;;;;;;7.50;5.25;;;;;;;16.67;49.77;98214.53;5132573;27;20039;-65
2023/10/20 08:21:07;;;;;;;6.78;5.25;;;;;;;16.68;49.60;98208.13;5132368;27;20046;-65
2023/10/20 08:23:37;;;;;;;;;;;;;;;16.67;49.78;98201.91;5132680;27;20058;-66
2023/10/20 08:26:06;;;;;;;7.07;5.00;;;;;;;16.69;49.88;98209.81;5132550;27;20020;-65
2023/10/20 08:28:37;;;;;;;7.75;5.50;;;;;;;16.69;49.78;98209.81;5132338;27;20438;-65
2023/10/20 08:31:07;;;;;;;7.43;5.22;;;;;;;16.70;50.07;98203.44;5132349;27;20407;-64
2023/10/20 08:33:36;;;;;;;8.35;5.50;;;;;;;16.71;50.28;98210.50;5131739;27;20476;-65
2023/10/20 08:36:12;;;;;;;7.05;5.30;;;;;;;16.73;50.40;98211.16;5132257;27;20073;-65
2023/10/20 08:38:43;;;;;;;8.65;5.25;;;;;;;16.72;50.47;98210.31;5132300;27;20047;-64
2023/10/20 08:41:13;;;;;;;9.13;5.30;;;;;;;16.74;50.59;98208.28;5132312;27;20092;-65
2023/10/20 08:43:44;;;;;;;9.10;4.97;;;;;;;16.74;51.17;98202.91;5132056;27;20445;-65
2023/10/20 08:46:14;;;;;;;8.48;5.18;;;;;;;16.76;51.32;98208.94;5132418;27;20051;-65
2023/10/20 08:48:47;;;;;;;9.02;5.28;;;;;;;16.76;51.25;98205.41;5136175;27;20300;-65
2023/10/20 08:51:18;;;;;;;7.53;5.22;;;;;;;16.78;51.95;98220.34;5136192;27;20058;-65
2023/10/20 08:53:48;;;;;;;10.00;5.05;;;;;;;16.79;52.29;98218.50;5136128;27;20134;-64
2023/10/20 08:56:16;;;;;;;9.85;4.88;;;;;;;16.80;52.61;98220.19;5135789;27;20541;-65
2023/10/20 08:58:48;;;;;;;7.13;4.68;;;;;;;16.81;52.78;98216.47;5135981;27;20047;-65
2023/10/20 09:01:17;;;;;;;7.85;4.95;;;;;;;16.80;53.00;98217.50;5136031;27;20099;-65
2023/10/20 09:03:48;;;;;;;10.15;4.93;;;;;;;16.82;53.24;98210.91;5135813;27;20039;-65
2023/10/20 09:06:16;;;;;;;8.52;5.18;;;;;;;16.83;53.53;98207.19;5135833;27;20050;-65
2023/10/20 09:08:50;;;;;;;6.95;4.60;;;;;;;16.84;53.72;98208.03;5135606;27;20043;-65
2023/10/20 09:11:24;;;;;;;8.38;5.05;;;;;;;16.86;53.84;98200.59;5135917;27;20099;-65
2023/10/20 09:13:53;;;;;;;;;;;;;;;16.88;54.32;98203.94;5136046;27;20047;-64
2023/10/20 09:16:23;;;;;;;7.85;4.72;;;;;;;16.88;53.96;98212.00;5135475;27;19930;-65
2023/10/20 09:18:52;;;;;;;10.05;4.88;;;;;;;16.90;53.79;98210.00;5135436;27;20495;-65
2023/10/20 09:21:24;;;;;;;7.57;4.65;;;;;;;16.93;54.08;98198.03;5135402;27;20061;-65
2023/10/20 09:23:56;;;;;;;8.63;4.90;;;;;;;16.93;54.25;98193.47;5135336;27;20047;-65
2023/10/20 09:26:26;;;;;;;7.80;4.75;;;;;;;16.96;54.15;98198.50;5135575;27;20066;-65
2023/10/20 09:28:56;;;;;;;8.43;4.72;;;;;;;16.99;54.26;98195.44;5135490;27;20080;-65
2023/10/20 09:31:28;;;;;;;7.75;4.63;;;;;;;17.00;54.20;98186.34;5135486;27;20242;-65
2023/10/20 09:33:56;;;;;;;6.25;4.28;;;;;;;17.02;54.54;98186.16;5135300;27;20054;-65
2023/10/20 09:36:26;;;;;;;8.98;4.35;;;;;;;17.04;54.85;98187.63;5135129;27;20043;-65
2023/10/20 09:38:57;;;;;;;7.43;4.45;;;;;;;17.04;54.85;98176.88;5134987;27;20540;-65
2023/10/20 09:41:27;;;;;;;8.98;4.40;;;;;;;17.08;55.15;98180.03;5135284;27;20086;-64
2023/10/20 09:44:05;;;;;;;6.57;4.35;;;;;;;17.10;55.17;98178.00;5135044;27;20483;-64
2023/10/20 09:46:46;;;;;;;7.97;4.68;;;;;;;17.11;55.07;98172.44;5134921;27;20050;-64
2023/10/20 09:49:19;;;;;;;10.65;5.05;;;;;;;17.14;55.53;98161.28;5135183;27;20138;-64
2023/10/20 09:51:49;;;;;;;7.85;3.80;;;;;;;17.16;55.52;98161.91;5134895;27;20530;-65
2023/10/20 09:54:26;;;;;;;8.40;4.32;;;;;;;17.21;55.34;98165.94;5134703;27;20055;-65
2023/10/20 09:56:56;;;;;;;8.70;4.35;;;;;;;17.26;55.67;98168.91;5134662;27;20043;-64
2023/10/20 09:59:28;;;;;;;11.27;4.95;;;;;;;17.26;56.05;98164.34;5133660;27;20049;-64
2023/10/20 10:01:59;;;;;;;9.80;4.20;;;;;;;17.31;55.61;98166.50;5134766;27;20054;-64
2023/10/20 10:04:33;;;;;;;7.47;4.20;;;;;;;17.36;55.98;98178.38;5134689;27;20433;-65
2023/10/20 10:07:05;;;;;;;7.68;3.70;;;;;;;17.46;56.00;98170.00;5134553;27;20039;-65
2023/10/20 10:09:39;;;;;;;8.90;4.10;;;;;;;17.46;55.52;98170.00;5134445;27;20051;-64
2023/10/20 10:12:09;;;;;;;7.90;4.20;;;;;;;17.46;56.07;98165.44;5134798;27;20051;-64
2023/10/20 10:14:38;;;;;;;7.82;4.20;;;;;;;17.48;56.19;98149.13;5134595;27;20047;-64
2023/10/20 10:17:09;;;;;;;8.32;4.10;;;;;;;17.53;56.50;98127.81;5134084;27;20138;-64
2023/10/20 10:19:50;;;;;;;8.43;4.05;;;;;;;17.56;56.49;98140.06;5134245;27;20100;-64
2023/10/20 10:22:25;;;;;;;8.30;4.32;;;;;;;17.58;56.33;98136.19;5134312;27;20062;-64
2023/10/20 10:24:57;;;;;;;7.13;3.95;;;;;;;17.59;56.62;98148.63;5134440;27;20044;-64
2023/10/20 10:27:32;;;;;;;9.32;3.95;;;;;;;17.60;56.57;98155.69;5134248;27;20078;-65
2023/10/20 10:30:05;;;;;;;6.57;3.88;;;;;;;17.63;56.86;98160.72;5134220;27;20071;-64
2023/10/20 10:32:34;;;;;;;;;;;;;;;17.66;57.65;98170.28;5134405;27;20055;-64
2023/10/20 10:35:04;;;;;;;6.65;3.88;;;;;;;17.69;57.71;98161.81;5133968;27;20033;-65
2023/10/20 10:37:34;;;;;;;8.82;3.97;;;;;;;17.73;57.43;98163.13;5134008;27;20124;-64
2023/10/20 10:40:09;;;;;;;7.35;4.28;;;;;;;17.76;57.27;98157.41;5133692;27;20043;-64
2023/10/20 10:42:42;;;;;;;9.68;3.72;;;;;;;17.78;57.33;98151.81;5133822;27;20403;-64
2023/10/20 10:45:19;;;;;;;8.10;4.18;;;;;;;17.82;57.09;98155.78;5133604;27;20047;-64
2023/10/20 10:47:50;;;;;;;12.70;4.05;;;;;;;17.85;57.12;98163.50;5133718;27;20173;-64
2023/10/20 10:50:21;;;;;;;7.43;4.10;;;;;;;17.87;57.43;98156.06;5133512;27;20043;-64
2023/10/20 10:52:49;;;;;;;7.70;3.58;;;;;;;17.88;57.00;98152.34;5133539;27;20051;-64
2023/10/20 10:55:22;;;;;;;9.10;3.80;;;;;;;17.91;57.05;98141.16;5133358;27;20452;-64
2023/10/20 10:57:51;;;;;;;8.00;4.00;;;;;;;17.93;56.96;98139.09;5133288;27;20403;-64
2023/10/20 11:00:21;;;;;;;7.63;3.80;;;;;;;17.95;56.57;98137.91;5133275;27;20053;-65
2023/10/20 11:02:50;;;;;;;6.30;3.85;;;;;;;18.01;56.41;98142.53;5132927;27;20047;-65
2023/10/20 11:05:20;;;;;;;9.73;4.10;;;;;;;18.03;56.55;98123.44;5133078;27;20133;-65
2023/10/20 11:08:01;;;;;;;7.82;4.15;;;;;;;18.10;56.42;98118.97;5133229;27;20047;-64
2023/10/20 11:10:33;;;;;;;7.25;3.75;;;;;;;18.16;56.19;98110.13;5132958;27;20566;-64
2023/10/20 11:13:06;;;;;;;8.95;3.90;;;;;;;18.18;56.02;98093.72;5133462;27;20068;-65
2023/10/20 11:15:35;;;;;;;;;;;;;;;18.21;55.39;98090.63;5133857;27;20070;-65
2023/10/20 11:18:05;;;;;;;9.25;3.90;;;;;;;18.23;55.22;98092.09;5132951;27;19937;-65
2023/10/20 11:20:37;;;;;;;7.43;3.75;;;;;;;18.24;55.21;98082.19;5133057;27;20077;-65
2023/10/20 11:23:08;;;;;;;6.97;3.55;;;;;;;18.27;55.23;98077.22;5132745;27;20058;-65
2023/10/20 11:25:37;;;;;;;8.45;3.65;;;;;;;18.30;54.78;98066.03;5133103;27;20402;-65
2023/10/20 11:28:07;;;;;;;7.18;3.53;;;;;;;18.37;54.61;98054.47;5133069;27;20047;-65
2023/10/20 11:30:38;;;;;;;8.20;3.80;;;;;;;18.56;54.23;98053.78;5133034;27;20043;-65
2023/10/20 11:33:08;;;;;;;8.07;3.80;;;;;;;18.73;53.84;98049.78;5132774;27;20401;-65
2023/10/20 11:35:41;;;;;;;6.75;3.90;;;;;;;18.99;53.33;98037.47;5132988;27;20096;-65
2023/10/20 11:38:09;;;;;;;7.10;3.40;;;;;;;19.07;53.18;98040.00;5132772;27;20047;-65
2023/10/20 11:40:38;;;;;;;6.80;3.65;;;;;;;19.06;53.10;98041.03;5132895;27;20050;-65
2023/10/20 11:43:09;;;;;;;8.27;3.70;;;;;;;19.01;53.30;98035.41;5132511;27;20035;-65
2023/10/20 11:45:37;;;;;;;8.45;3.90;;;;;;;19.04;53.47;98045.81;5132338;27;20438;-65
2023/10/20 11:48:06;;;;;;;7.53;3.88;;;;;;;19.09;53.48;98046.03;5132674;27;20078;-64
2023/10/20 11:50:36;;;;;;;7.57;3.55;;;;;;;19.13;53.65;98055.44;5132519;27;20043;-64
2023/10/20 11:53:05;;;;;;;8.68;3.80;;;;;;;19.12;53.81;98048.38;5132487;27;20103;-64
2023/10/20 11:55:34;;;;;;;8.13;3.78;;;;;;;19.09;53.96;98057.69;5132706;27;20555;-64
2023/10/20 11:58:04;;;;;;;6.53;3.58;;;;;;;19.08;54.18;98055.19;5132209;27;20050;-65
2023/10/20 12:00:33;;;;;;;10.23;3.72;;;;;;;19.07;54.07;98038.13;5132366;27;20094;-65
2023/10/20 12:03:02;;;;;;;8.32;3.47;;;;;;;19.09;53.75;98043.34;5132557;27;20050;-65
2023/10/20 12:05:36;;;;;;;7.07;3.53;;;;;;;19.08;53.99;98053.31;5132436;27;20097;-65